createdAt,value
2023-03-20T00:01:31.227Z,78.20
2023-03-20T00:04:14.408Z,82.70
2023-03-20T00:06:57.681Z,80.80
2023-03-20T00:09:40.793Z,82.80
2023-03-20T00:12:26.564Z,81.80
2023-03-20T00:15:38.297Z,85.80
2023-03-20T00:18:24.991Z,89.40
2023-03-20T00:21:18.073Z,87.80
2023-03-20T00:24:01.979Z,86.30
2023-03-20T00:26:46.950Z,88.60
2023-03-20T00:29:32.312Z,88.00
2023-03-20T00:32:15.761Z,85.30
2023-03-20T00:34:58.813Z,89.00
2023-03-20T00:37:41.884Z,90.70
2023-03-20T00:40:32.055Z,90.90
2023-03-20T00:43:24.598Z,90.40
2023-03-20T00:46:14.316Z,89.20
2023-03-20T00:48:57.592Z,87.90
2023-03-20T00:51:42.510Z,89.20
2023-03-20T00:54:26.980Z,91.20
2023-03-20T00:57:32.323Z,84.00
2023-03-20T01:00:48.966Z,86.40
2023-03-20T01:03:32.225Z,92.00
2023-03-20T01:06:15.808Z,98.20
2023-03-20T01:08:58.844Z,92.80
2023-03-20T01:11:44.831Z,92.90
2023-03-20T01:14:28.164Z,91.10
2023-03-20T01:17:19.753Z,90.90
2023-03-20T01:20:02.773Z,93.80
2023-03-20T01:22:45.823Z,91.00
2023-03-20T01:25:29.250Z,95.40
2023-03-20T01:28:22.206Z,93.70
2023-03-20T01:31:12.865Z,93.40
2023-03-20T01:34:00.376Z,91.80
2023-03-20T01:36:50.150Z,94.50
2023-03-20T01:39:36.018Z,89.40
2023-03-20T01:42:20.044Z,92.40
2023-03-20T01:45:16.531Z,86.80
2023-03-20T01:47:59.802Z,89.60
2023-03-20T01:50:43.163Z,92.40
2023-03-20T01:53:35.889Z,87.50
2023-03-20T01:56:20.946Z,86.90
2023-03-20T01:59:37.439Z,85.70
2023-03-20T02:02:25.425Z,90.40
2023-03-20T02:05:13.911Z,90.30
2023-03-20T02:08:13.216Z,90.30
2023-03-20T02:10:58.585Z,92.80
2023-03-20T02:13:45.644Z,88.60
2023-03-20T02:16:29.333Z,89.70
2023-03-20T02:19:29.441Z,87.30
2023-03-20T02:22:41.319Z,88.90
2023-03-20T02:25:37.240Z,91.00
2023-03-20T02:28:43.000Z,88.00
2023-03-20T02:31:48.117Z,85.00
2023-03-20T02:34:47.008Z,95.50
2023-03-20T02:37:57.601Z,100.30
2023-03-20T02:41:12.195Z,101.30
2023-03-20T02:44:14.387Z,102.00
2023-03-20T02:47:02.657Z,102.70
2023-03-20T02:50:02.138Z,103.80
2023-03-20T02:53:12.915Z,98.90
2023-03-20T02:56:02.576Z,101.40
2023-03-20T02:58:50.788Z,100.70
2023-03-20T03:01:42.416Z,102.00
2023-03-20T03:04:29.978Z,100.90
2023-03-20T03:07:19.792Z,104.70
2023-03-20T03:10:12.504Z,104.30
2023-03-20T03:12:58.729Z,104.60
2023-03-20T03:15:47.204Z,103.20
2023-03-20T03:18:32.334Z,102.00
2023-03-20T03:21:17.642Z,106.40
2023-03-20T03:24:01.639Z,105.80
2023-03-20T03:26:44.917Z,105.70
2023-03-20T03:29:34.143Z,103.90
2023-03-20T03:32:29.025Z,105.70
2023-03-20T03:35:21.556Z,103.30
2023-03-20T03:38:23.474Z,101.40
2023-03-20T03:41:24.946Z,101.60
2023-03-20T03:44:11.238Z,103.50
2023-03-20T03:46:59.338Z,101.30
2023-03-20T03:49:49.142Z,103.60
2023-03-20T03:52:33.461Z,105.40
2023-03-20T03:55:27.479Z,107.30
2023-03-20T03:58:29.720Z,105.50
2023-03-20T04:01:16.808Z,102.40
2023-03-20T04:04:04.264Z,100.70
2023-03-20T04:06:47.996Z,102.90
2023-03-20T04:09:30.930Z,99.30
2023-03-20T04:12:40.236Z,100.70
2023-03-20T04:15:27.766Z,101.10
2023-03-20T04:18:19.513Z,101.40
2023-03-20T04:21:04.748Z,96.30
2023-03-20T04:23:47.942Z,95.20
2023-03-20T04:26:31.385Z,95.60
2023-03-20T04:29:14.515Z,94.10
2023-03-20T04:32:13.990Z,92.10
2023-03-20T04:35:24.509Z,95.70
2023-03-20T04:38:13.748Z,97.10
2023-03-20T04:40:57.242Z,97.20
2023-03-20T04:43:40.774Z,97.10
2023-03-20T04:46:25.033Z,97.70
2023-03-20T04:49:08.895Z,93.20
2023-03-20T04:51:52.054Z,97.20
2023-03-20T04:54:46.025Z,93.10
2023-03-20T04:57:28.964Z,97.00
2023-03-20T05:00:12.573Z,92.00
2023-03-20T05:02:56.217Z,91.90
2023-03-20T05:05:39.626Z,90.50
2023-03-20T05:08:22.605Z,89.40
2023-03-20T05:11:10.274Z,91.50
2023-03-20T05:14:12.208Z,92.10
2023-03-20T05:17:33.801Z,92.10
2023-03-20T05:20:43.168Z,92.50
2023-03-20T05:23:45.797Z,91.80
2023-03-20T05:26:48.793Z,95.60
2023-03-20T05:29:43.754Z,93.60
2023-03-20T05:32:59.392Z,89.60
2023-03-20T05:35:42.956Z,90.90
2023-03-20T05:38:46.292Z,92.20
2023-03-20T05:41:42.566Z,90.70
2023-03-20T05:44:27.458Z,88.90
2023-03-20T05:47:35.534Z,89.90
2023-03-20T05:50:39.591Z,92.20
2023-03-20T05:53:37.238Z,92.80
2023-03-20T05:56:31.237Z,94.50
2023-03-20T05:59:37.060Z,93.70
2023-03-20T06:02:59.274Z,91.20
2023-03-20T06:05:57.036Z,88.60
2023-03-20T06:08:40.893Z,90.30
2023-03-20T06:11:24.557Z,94.10
2023-03-20T06:14:07.542Z,93.80
2023-03-20T06:16:54.505Z,92.30
2023-03-20T06:19:38.854Z,94.10
2023-03-20T06:22:22.589Z,94.70
2023-03-20T06:25:07.474Z,89.70
2023-03-20T06:27:54.323Z,90.30
2023-03-20T06:30:37.892Z,94.80
2023-03-20T06:33:22.130Z,95.50
2023-03-20T06:36:12.524Z,90.90
2023-03-20T06:38:57.292Z,92.20
2023-03-20T06:41:41.200Z,94.90
2023-03-20T06:44:27.103Z,95.00
2023-03-20T06:47:47.385Z,85.40
2023-03-20T06:50:31.346Z,91.70
2023-03-20T06:53:14.928Z,91.80
2023-03-20T06:56:02.052Z,89.80
2023-03-20T06:58:45.957Z,91.00
2023-03-20T07:01:29.527Z,90.00
2023-03-20T07:04:12.684Z,87.00
2023-03-20T07:07:01.485Z,89.50
2023-03-20T07:09:45.512Z,86.80
2023-03-20T07:12:29.391Z,85.60
2023-03-20T07:15:15.032Z,82.30
2023-03-20T07:17:58.320Z,78.40
2023-03-20T07:20:42.841Z,75.60
2023-03-20T07:23:26.254Z,73.90
2023-03-20T07:26:09.327Z,70.90
2023-03-20T07:28:52.598Z,71.70
2023-03-20T07:31:38.358Z,68.80
2023-03-20T07:34:27.951Z,69.10
2023-03-20T07:37:11.587Z,71.90
2023-03-20T07:40:01.658Z,68.20
2023-03-20T07:42:50.325Z,68.20
2023-03-20T07:45:53.217Z,68.10
2023-03-20T07:48:36.922Z,63.40
2023-03-20T07:51:20.225Z,65.40
2023-03-20T07:54:03.289Z,63.10
2023-03-20T07:56:46.744Z,65.70
2023-03-20T07:59:30.045Z,63.30
2023-03-20T08:02:16.816Z,62.90
2023-03-20T08:04:59.887Z,61.90
2023-03-20T08:07:43.211Z,63.10
2023-03-20T08:10:26.660Z,60.70
2023-03-20T08:13:09.674Z,63.80
2023-03-20T08:15:52.775Z,62.20
2023-03-20T08:18:36.304Z,63.70
2023-03-20T08:21:20.168Z,65.90
2023-03-20T08:24:03.267Z,60.60
2023-03-20T08:26:46.614Z,60.00
2023-03-20T08:29:29.634Z,59.10
2023-03-20T08:32:12.886Z,59.00
2023-03-20T08:34:56.178Z,60.10
2023-03-20T08:37:39.346Z,57.60
2023-03-20T08:40:22.288Z,57.80
2023-03-20T08:43:05.656Z,54.40
2023-03-20T08:45:49.089Z,54.50
2023-03-20T08:48:32.265Z,53.40
2023-03-20T08:51:15.356Z,53.00
2023-03-20T08:53:58.526Z,49.80
2023-03-20T08:56:42.306Z,48.80
2023-03-20T08:59:25.420Z,45.60
2023-03-20T09:02:12.053Z,45.00
2023-03-20T09:04:55.185Z,46.40
2023-03-20T09:07:38.188Z,45.60
2023-03-20T09:10:21.514Z,43.70
2023-03-20T09:13:19.512Z,41.20
2023-03-20T09:16:08.692Z,41.50
2023-03-20T09:18:51.679Z,40.10
2023-03-20T09:21:34.875Z,37.10
2023-03-20T09:24:17.791Z,40.20
2023-03-20T09:27:03.508Z,36.90
2023-03-20T09:29:46.805Z,37.40
2023-03-20T09:32:30.179Z,36.30
2023-03-20T09:35:13.227Z,34.10
2023-03-20T09:37:56.711Z,37.30
2023-03-20T09:41:01.359Z,35.50
2023-03-20T09:44:19.554Z,33.90
2023-03-20T09:47:28.630Z,33.70
2023-03-20T09:50:38.776Z,35.40
2023-03-20T09:53:36.567Z,33.60
2023-03-20T09:56:26.894Z,34.00
2023-03-20T09:59:16.162Z,32.60
2023-03-20T10:02:17.030Z,32.50
2023-03-20T10:05:00.278Z,32.50
2023-03-20T10:07:43.520Z,32.40
2023-03-20T10:10:44.832Z,32.70
2023-03-20T10:13:39.864Z,31.40
2023-03-20T10:17:09.406Z,31.80
2023-03-20T10:19:58.407Z,32.90
2023-03-20T10:22:56.444Z,31.20
2023-03-20T10:26:01.062Z,31.80
2023-03-20T10:28:55.937Z,31.10
2023-03-20T10:31:39.022Z,31.80
2023-03-20T10:34:31.361Z,30.30
2023-03-20T10:37:32.495Z,28.10
2023-03-20T10:40:30.628Z,27.30
2023-03-20T10:43:33.666Z,26.60
2023-03-20T10:46:26.540Z,24.80
2023-03-20T10:49:41.322Z,27.30
2023-03-20T10:52:29.513Z,23.40
2023-03-20T10:55:30.712Z,25.00
2023-03-20T10:58:22.393Z,23.60
2023-03-20T11:01:05.944Z,22.40
2023-03-20T11:03:49.161Z,21.40
2023-03-20T11:06:38.922Z,20.80
2023-03-20T11:09:26.788Z,18.30
2023-03-20T11:12:19.570Z,19.00
2023-03-20T11:15:15.481Z,18.00
2023-03-20T11:18:07.855Z,18.70
2023-03-20T11:20:58.657Z,19.20
2023-03-20T11:23:41.776Z,19.20
2023-03-20T11:26:42.283Z,17.80
2023-03-20T11:29:30.468Z,17.80
2023-03-20T11:32:27.805Z,19.00
2023-03-20T11:35:15.473Z,18.00
2023-03-20T11:38:21.780Z,18.00
2023-03-20T11:41:05.488Z,15.90
2023-03-20T11:43:48.493Z,17.60
2023-03-20T11:46:32.000Z,17.00
2023-03-20T11:49:28.063Z,14.40
2023-03-20T11:52:14.396Z,13.80
2023-03-20T11:54:59.491Z,12.80
2023-03-20T11:57:47.156Z,14.80
2023-03-20T12:00:41.566Z,15.60
2023-03-20T12:03:37.291Z,15.50
2023-03-20T12:06:38.083Z,14.90
2023-03-20T12:09:33.641Z,16.40
2023-03-20T12:12:29.235Z,13.40
2023-03-20T12:15:26.364Z,13.00
2023-03-20T12:18:34.387Z,13.90
2023-03-20T12:21:33.575Z,14.40
2023-03-20T12:24:29.952Z,13.80
2023-03-20T12:27:23.800Z,13.90
2023-03-20T12:30:17.057Z,15.30
2023-03-20T12:33:26.487Z,14.10
2023-03-20T12:36:16.603Z,13.80
2023-03-20T12:39:03.804Z,13.20
2023-03-20T12:42:05.021Z,13.80
2023-03-20T12:45:21.188Z,14.50
2023-03-20T12:48:15.861Z,15.10
2023-03-20T12:51:03.592Z,15.20
2023-03-20T12:54:02.051Z,14.30
2023-03-20T12:56:56.514Z,12.80
2023-03-20T12:59:47.653Z,10.20
2023-03-20T13:02:30.886Z,9.50
2023-03-20T13:05:23.489Z,7.80
2023-03-20T13:08:37.279Z,7.50
2023-03-20T13:11:35.568Z,7.20
2023-03-20T13:14:24.631Z,7.60
2023-03-20T13:17:52.131Z,8.40
2023-03-20T13:20:48.443Z,7.60
2023-03-20T13:24:12.751Z,7.10
2023-03-20T13:27:14.587Z,7.80
2023-03-20T13:30:02.289Z,7.40
2023-03-20T13:33:06.225Z,6.70
2023-03-20T13:36:27.497Z,5.50
2023-03-20T13:39:22.451Z,5.50
2023-03-20T13:42:10.848Z,6.00
2023-03-20T13:44:59.946Z,6.20
2023-03-20T13:47:46.857Z,7.20
2023-03-20T13:50:45.559Z,7.40
2023-03-20T13:53:56.154Z,7.00
2023-03-20T13:57:00.146Z,6.10
2023-03-20T14:00:02.266Z,6.90
2023-03-20T14:03:07.452Z,7.70
2023-03-20T14:05:51.104Z,7.80
2023-03-20T14:08:38.737Z,7.70
2023-03-20T14:11:21.797Z,7.60
2023-03-20T14:14:41.978Z,8.40
2023-03-20T14:17:27.982Z,8.70
2023-03-20T14:20:20.992Z,8.00
2023-03-20T14:23:05.272Z,8.60
2023-03-20T14:25:49.386Z,9.90
2023-03-20T14:28:45.883Z,9.70
2023-03-20T14:31:38.540Z,10.50
2023-03-20T14:34:24.873Z,11.70
2023-03-20T14:37:37.907Z,11.90
2023-03-20T14:43:18.885Z,12.10
2023-03-20T14:46:43.476Z,11.50
2023-03-20T14:49:54.426Z,12.40
2023-03-20T14:53:01.196Z,13.00
2023-03-20T14:55:57.164Z,14.30
2023-03-20T14:58:46.415Z,13.20
2023-03-20T15:01:38.245Z,12.70
2023-03-20T15:04:41.264Z,12.40
2023-03-20T15:10:09.390Z,12.40
2023-03-20T15:12:53.133Z,13.50
2023-03-20T15:15:36.158Z,15.90
2023-03-20T15:18:21.541Z,17.80
2023-03-20T15:21:13.376Z,20.30
2023-03-20T15:23:56.709Z,20.40
2023-03-20T15:26:40.832Z,20.70
2023-03-20T15:29:24.615Z,20.60
2023-03-20T15:32:14.258Z,19.90
2023-03-20T15:34:58.258Z,19.30
2023-03-20T15:37:45.884Z,18.80
2023-03-20T15:40:47.363Z,19.90
2023-03-20T15:43:35.364Z,18.40
2023-03-20T15:46:19.620Z,17.90
2023-03-20T15:49:05.194Z,15.30
2023-03-20T15:51:50.766Z,12.80
2023-03-20T15:54:37.545Z,13.50
2023-03-20T15:57:26.610Z,13.00
2023-03-20T16:00:17.273Z,12.30
2023-03-20T16:03:08.111Z,11.50
2023-03-20T16:05:52.153Z,12.60
2023-03-20T16:08:35.910Z,13.30
2023-03-20T16:11:19.843Z,13.00
2023-03-20T16:14:03.975Z,12.70
2023-03-20T16:16:51.933Z,13.00
2023-03-20T16:19:35.608Z,13.50
2023-03-20T16:22:30.900Z,12.80
2023-03-20T16:25:20.411Z,12.60
2023-03-20T16:28:07.498Z,13.00
2023-03-20T16:31:24.789Z,23.00
2023-03-20T16:34:15.144Z,26.30
2023-03-20T16:37:01.895Z,20.70
2023-03-20T16:39:45.125Z,14.60
2023-03-20T16:42:29.724Z,13.70
2023-03-20T16:45:23.666Z,14.30
2023-03-20T16:48:24.221Z,14.20
2023-03-20T16:51:27.061Z,13.60
2023-03-20T16:54:20.146Z,15.10
2023-03-20T16:57:09.896Z,15.20
2023-03-20T16:59:57.641Z,15.00
2023-03-20T17:02:41.215Z,16.00
2023-03-20T17:05:40.137Z,21.30
2023-03-20T17:08:29.401Z,22.60
2023-03-20T17:11:22.675Z,18.30
2023-03-20T17:14:05.708Z,16.20
2023-03-20T17:16:53.203Z,15.30
2023-03-20T17:19:36.148Z,15.20
2023-03-20T17:22:24.414Z,15.40
2023-03-20T17:25:09.097Z,16.60
2023-03-20T17:27:52.410Z,17.20
2023-03-20T17:30:35.646Z,15.50
2023-03-20T17:33:21.237Z,21.70
2023-03-20T17:36:04.410Z,27.60
2023-03-20T17:38:47.557Z,32.20
2023-03-20T17:41:30.984Z,23.60
2023-03-20T17:44:14.120Z,16.60
2023-03-20T17:46:59.216Z,16.90
2023-03-20T17:49:42.630Z,16.10
2023-03-20T17:52:27.896Z,16.40
2023-03-20T17:55:11.141Z,15.40
2023-03-20T17:57:54.223Z,16.10
2023-03-20T18:00:37.340Z,16.70
2023-03-20T18:03:20.761Z,16.10
2023-03-20T18:06:05.812Z,17.20
2023-03-20T18:08:48.922Z,14.80
2023-03-20T18:11:32.452Z,19.70
2023-03-20T18:14:18.945Z,26.20
2023-03-20T18:17:02.088Z,22.70
2023-03-20T18:19:45.282Z,21.40
2023-03-20T18:22:28.280Z,18.10
2023-03-20T18:25:11.414Z,19.60
2023-03-20T18:27:55.616Z,18.40
2023-03-20T18:30:41.414Z,15.70
2023-03-20T18:33:27.752Z,14.50
2023-03-20T18:36:28.185Z,12.40
2023-03-20T18:39:22.233Z,11.60
2023-03-20T18:42:05.477Z,10.90
2023-03-20T18:44:48.544Z,11.30
2023-03-20T18:47:31.602Z,10.80
2023-03-20T18:50:43.939Z,12.00
2023-03-20T18:53:28.836Z,22.40
2023-03-20T18:56:18.468Z,12.20
2023-03-20T18:59:01.641Z,10.90
2023-03-20T19:01:46.387Z,10.70
2023-03-20T19:04:29.588Z,10.50
2023-03-20T19:07:12.937Z,11.50
2023-03-20T19:09:55.881Z,11.60
2023-03-20T19:12:38.843Z,11.40
2023-03-20T19:15:23.942Z,11.80
2023-03-20T19:18:12.601Z,12.60
2023-03-20T19:20:57.558Z,11.40
2023-03-20T19:23:40.545Z,12.00
2023-03-20T19:26:25.873Z,12.10
2023-03-20T19:29:11.705Z,12.90
2023-03-20T19:31:54.683Z,13.60
2023-03-20T19:35:31.214Z,13.20
2023-03-20T19:37:40.699Z,13.60
2023-03-20T19:40:34.568Z,13.30
2023-03-20T19:43:17.823Z,13.80
2023-03-20T19:46:01.049Z,13.80
2023-03-20T19:48:50.796Z,14.80
2023-03-20T19:51:34.509Z,13.80
2023-03-20T19:54:18.245Z,15.00
2023-03-20T19:57:01.260Z,15.10
2023-03-20T19:59:44.283Z,15.90
2023-03-20T20:02:27.375Z,15.50
2023-03-20T20:05:32.646Z,15.10
2023-03-20T20:08:28.297Z,16.40
2023-03-20T20:11:18.369Z,15.90
2023-03-20T20:14:07.560Z,16.50
2023-03-20T20:16:52.783Z,17.40
2023-03-20T20:19:36.532Z,15.40
2023-03-20T20:22:25.728Z,14.80
2023-03-20T20:25:11.708Z,15.80
2023-03-20T20:27:54.829Z,15.20
2023-03-20T20:30:39.494Z,14.70
2023-03-20T20:33:28.723Z,16.20
2023-03-20T20:37:17.352Z,15.30
2023-03-20T20:39:16.906Z,14.20
2023-03-20T20:42:00.109Z,14.30
2023-03-20T20:44:43.557Z,14.10
2023-03-20T20:47:26.652Z,14.20
2023-03-20T20:50:12.014Z,14.70
2023-03-20T20:52:57.508Z,13.80
2023-03-20T20:55:41.693Z,14.80
2023-03-20T20:58:25.080Z,14.30
2023-03-20T21:01:08.087Z,15.50
2023-03-20T21:03:52.506Z,14.40
2023-03-20T21:07:05.787Z,16.60
2023-03-20T21:09:39.381Z,14.30
2023-03-20T21:12:34.748Z,15.20
2023-03-20T21:15:20.525Z,14.90
2023-03-20T21:18:04.192Z,16.30
2023-03-20T21:20:47.270Z,15.70
2023-03-20T21:23:30.292Z,15.20
2023-03-20T21:26:13.360Z,17.60
2023-03-20T21:28:56.478Z,17.60
2023-03-20T21:31:39.532Z,16.80
2023-03-20T21:34:22.744Z,17.00
2023-03-20T21:38:10.085Z,18.60
2023-03-20T21:40:10.777Z,19.30
2023-03-20T21:42:53.737Z,19.00
2023-03-20T21:49:24.632Z,19.00
2023-03-20T22:01:46.018Z,17.70
2023-03-20T22:10:51.310Z,16.80
2023-03-20T22:14:06.590Z,19.10
2023-03-20T22:26:28.530Z,17.30
2023-03-20T22:32:10.806Z,21.20
2023-03-20T22:49:31.202Z,18.40
2023-03-20T22:52:27.066Z,18.20
2023-03-20T22:55:16.149Z,17.80
2023-03-20T22:58:07.000Z,17.80
2023-03-20T23:00:51.875Z,18.60
2023-03-20T23:03:41.464Z,20.40
2023-03-20T23:06:27.497Z,17.40
2023-03-20T23:09:15.248Z,17.50
2023-03-20T23:11:58.706Z,17.80
2023-03-20T23:14:45.895Z,17.40
2023-03-20T23:17:29.029Z,18.10
2023-03-20T23:20:15.876Z,17.10
2023-03-20T23:23:01.862Z,17.80
2023-03-20T23:25:44.896Z,16.50
2023-03-20T23:28:27.845Z,15.60
2023-03-20T23:31:16.196Z,16.40
2023-03-20T23:33:59.459Z,15.50
2023-03-20T23:36:42.580Z,14.60
2023-03-20T23:39:25.953Z,16.00
2023-03-20T23:42:23.907Z,15.40
2023-03-20T23:45:20.037Z,15.10
2023-03-20T23:48:04.225Z,14.80
2023-03-20T23:50:53.091Z,14.20
2023-03-20T23:53:36.644Z,14.80
2023-03-20T23:56:19.761Z,15.50
2023-03-20T23:59:11.475Z,13.50
